Latest Weather Observations for Braidwood

IDN60801

Issued at 11:05 pm EST Wednesday 30 July 2014 (issued every 30 minutes, with the page automatically refreshed every 10 minutes)

About weather observations | Map of weather stations | Latest weather observations for NSW | Other Formats
Station Details ID: 069132 Name: BRAIDWOOD RACECOURSE AWS Lat: -35.43 Lon: 149.78 Height: 665.2 m
Data from the previous 72 hours. | See also: Recent months at Braidwood
Date/Time
EST
Temp
°C
App
Temp
°C
Dew
Point
Rel
Hum
%
Delta-T
°C
Wind Press
QNH
hPa
Press
MSL
hPa
Rain
since 9 am
mm
Dir
 
Spd
km/h
Gust
km/h
Spd
kts
Gust
kts
30/11:00pm 11.0 6.6 6.7 75 2.1 NNW 19 35 10 19 1014.5 1015.5 0.0
30/10:30pm 11.2 6.9 6.9 75 2.1 NNW 19 32 10 17 1014.6 - 0.0
30/10:00pm 11.3 6.8 7.0 75 2.1 NW 20 30 11 16 1014.8 1015.8 0.0
30/09:30pm 11.6 7.3 7.1 74 2.2 NW 19 26 10 14 1015.1 - 0.0
30/09:00pm 11.5 8.9 7.6 77 2.0 N 11 20 6 11 1015.2 1016.3 0.0
30/08:30pm 11.5 8.8 7.4 76 2.1 NNW 11 19 6 10 1015.2 - 0.0
30/08:00pm 11.1 8.6 6.6 74 2.2 NNW 9 22 5 12 1015.5 1016.6 0.0
30/07:30pm 11.8 9.3 6.5 70 2.6 NNW 9 22 5 12 1015.4 - 0.0
30/07:00pm 11.7 8.8 6.6 71 2.5 NNW 11 28 6 15 1015.1 1016.1 0.0
30/06:30pm 12.0 8.0 6.7 70 2.6 NW 17 33 9 18 1015.1 - 0.0
30/06:00pm 11.8 9.0 6.9 72 2.4 NNW 11 19 6 10 1014.9 1015.9 0.0
30/05:30pm 11.8 9.0 6.9 72 2.4 NNW 11 17 6 9 1014.6 - 0.0
30/05:00pm 12.1 7.8 6.8 70 2.6 NW 19 30 10 16 1014.6 1015.6 0.0
30/04:30pm 12.4 8.0 6.7 68 2.8 NW 19 32 10 17 1014.5 - 0.0
30/04:00pm 12.4 8.4 6.7 68 2.8 NNW 17 32 9 17 1014.4 1015.4 0.0
30/03:30pm 12.5 7.9 6.5 67 3.0 NW 20 33 11 18 1014.4 - 0.0
30/03:00pm 13.5 8.4 7.5 67 3.0 NW 24 41 13 22 1014.2 1015.2 0.0
30/02:30pm 12.9 7.2 6.7 66 3.1 NW 26 43 14 23 1014.3 - 0.0
30/02:00pm 13.6 6.8 6.7 63 3.5 WNW 32 50 17 27 1014.3 1015.3 0.0
30/01:53pm 13.2 6.2 5.9 61 3.6 WNW 32 50 17 27 1014.3 - 0.0
30/01:30pm 13.4 5.9 6.3 62 3.5 WNW 35 54 19 29 1014.2 - 0.0
30/01:24pm 13.4 6.2 5.8 60 3.7 NW 33 54 18 29 1014.2 - 0.0
30/01:00pm 13.3 5.0 6.2 62 3.5 WNW 39 56 21 30 1014.2 1015.2 0.0
30/12:38pm 13.4 5.8 5.8 60 3.7 WNW 35 57 19 31 1014.6 - 0.0
30/12:30pm 13.5 6.6 6.6 63 3.4 WNW 32 48 17 26 1014.8 - 0.0
30/12:00pm 13.1 5.6 6.5 64 3.3 WNW 35 57 19 31 1014.9 1015.9 0.0
30/11:33am 13.3 6.9 6.9 65 3.2 WNW 30 50 16 27 1014.8 - 0.0
30/11:30am 13.4 7.4 7.0 65 3.2 WNW 28 39 15 21 1014.9 - 0.0
30/11:12am 12.7 6.6 6.7 67 3.0 WNW 28 57 15 31 1015.3 - 0.0
30/11:00am 12.6 6.2 7.1 69 2.8 NW 30 43 16 23 1015.5 1016.6 0.0
30/10:30am 12.5 5.6 7.4 71 2.6 NW 33 52 18 28 1015.6 - 0.0
30/10:14am 12.0 6.1 7.5 74 2.3 NW 28 48 15 26 1015.8 - 0.0
30/10:00am 11.5 5.5 7.2 75 2.1 NW 28 46 15 25 1016.2 1017.2 0.0
30/09:30am 11.1 6.3 7.4 78 1.8 NW 22 35 12 19 1016.5 - 0.0
30/09:00am 10.5 5.2 7.0 79 1.7 NW 24 44 13 24 1016.7 1017.8 0.2
30/08:30am 10.3 5.9 7.2 81 1.5 NW 20 39 11 21 1016.3 - 0.2
30/08:00am 9.7 5.4 6.8 82 1.4 NW 19 30 10 16 1015.8 1016.8 0.2
30/07:30am 9.2 5.5 6.3 82 1.4 NNW 15 26 8 14 1015.8 - 0.2
30/07:00am 8.7 5.2 5.6 81 1.5 NNW 13 20 7 11 1015.5 1016.6 0.2
30/06:30am 8.9 4.7 5.6 80 1.6 NW 17 24 9 13 1014.9 - 0.2
30/06:00am 9.2 4.5 5.9 80 1.6 NW 20 30 11 16 1014.5 1015.5 0.2
30/05:30am 9.2 5.4 5.9 80 1.6 NW 15 26 8 14 1014.4 - 0.2
30/05:00am 8.9 5.7 5.1 77 1.8 NNW 11 19 6 10 1014.7 1015.7 0.2
30/04:30am 9.2 5.6 5.0 75 2.0 NW 13 20 7 11 1014.4 - 0.2
30/04:00am 9.9 6.3 5.1 72 2.3 NNW 13 20 7 11 1014.4 1015.4 0.2
30/03:30am 9.9 6.3 4.9 71 2.3 NNW 13 24 7 13 1014.3 - 0.2
30/03:00am 9.7 6.4 4.5 70 2.4 NNW 11 20 6 11 1014.3 1015.3 0.2
30/02:30am 9.7 5.2 4.1 68 2.6 NW 17 33 9 18 1013.9 - 0.2
30/02:00am 9.9 4.9 3.4 64 2.9 NW 19 35 10 19 1013.6 1014.6 0.2
30/01:30am 11.1 4.8 3.6 60 3.4 NW 26 41 14 22 1013.4 - 0.2
30/01:00am 10.5 5.2 3.1 60 3.3 NW 20 37 11 20 1013.8 1014.8 0.2
30/12:30am 10.8 3.5 2.6 57 3.7 WNW 30 41 16 22 1013.7 - 0.2
30/12:00am 11.1 3.4 2.4 55 3.9 WNW 32 44 17 24 1013.8 1014.8 0.2
 
Date/Time
EST
Temp
°C
App
Temp
°C
Dew
Point
Rel
Hum
%
Delta-T
°C
Wind Press
QNH
hPa
Press
MSL
hPa
Rain
since 9 am
mm
Dir
 
Spd
km/h
Gust
km/h
Spd
kts
Gust
kts
29/11:30pm 11.6 3.3 2.4 53 4.1 WNW 35 65 19 35 1013.6 - 0.2
29/11:01pm 11.9 4.6 2.4 52 4.3 WNW 30 56 16 30 1013.9 - 0.2
29/11:00pm 11.9 5.0 2.4 52 4.3 NW 28 43 15 23 1013.9 1015.0 0.2
29/10:30pm 12.1 4.4 2.3 51 4.4 WNW 32 52 17 28 1013.7 - 0.2
29/10:13pm 12.7 5.1 2.6 50 4.6 WNW 32 50 17 27 1013.7 - 0.2
29/10:00pm 12.4 7.7 3.1 53 4.3 NW 17 30 9 16 1014.3 1015.3 0.2
29/09:30pm 12.2 8.6 3.2 54 4.1 NNW 11 28 6 15 1013.9 - 0.2
29/09:00pm 11.8 7.1 3.1 55 4.0 NNW 17 41 9 22 1013.0 1014.0 0.2
29/08:30pm 11.5 7.2 3.0 56 3.9 NNW 15 30 8 16 1012.8 - 0.2
29/08:00pm 10.9 7.3 3.0 58 3.6 NNW 11 20 6 11 1012.9 1013.9 0.2
29/07:30pm 10.6 7.8 2.9 59 3.5 N 7 15 4 8 1013.2 - 0.2
29/07:00pm 10.7 7.8 2.5 57 3.7 NNE 7 15 4 8 1013.1 1014.1 0.2
29/06:30pm 11.1 7.5 2.9 57 3.7 NNW 11 26 6 14 1012.9 - 0.2
29/06:00pm 11.4 6.9 2.4 54 4.0 N 15 33 8 18 1012.8 1013.8 0.2
29/05:30pm 12.0 7.5 1.9 50 4.5 NW 15 26 8 14 1012.7 - 0.2
29/05:00pm 12.7 8.8 1.4 46 5.0 NNW 11 20 6 11 1012.2 1013.2 0.2
29/04:30pm 13.5 8.3 2.4 47 5.1 NW 19 37 10 20 1011.9 - 0.2
29/04:00pm 14.4 10.1 3.2 47 5.2 NNW 15 32 8 17 1012.0 1013.0 0.2
29/03:30pm 15.2 11.2 3.0 44 5.7 NNW 13 26 7 14 1012.2 - 0.2
29/03:00pm 15.5 12.0 3.6 45 5.7 N 11 30 6 16 1012.2 1013.2 0.2
29/02:30pm 15.3 10.4 1.8 40 6.2 NNW 17 33 9 18 1012.2 - 0.2
29/02:00pm 15.1 9.8 3.0 44 5.7 NNW 20 35 11 19 1011.8 1012.8 0.0
29/01:30pm 14.8 5.5 2.7 44 5.6 NW 41 67 22 36 1010.3 - 0.0
29/01:00pm 14.7 3.1 1.6 41 5.9 NW 52 78 28 42 1010.3 1011.3 0.0
29/12:30pm 15.2 7.3 2.4 42 5.9 NW 33 65 18 35 1012.0 - 0.0
29/12:00pm 15.0 7.5 1.5 40 6.1 WNW 30 54 16 29 1013.4 1014.4 0.0
29/11:32am 14.7 6.6 1.3 40 6.0 WNW 33 61 18 33 1013.9 - 0.0
29/11:30am 14.7 6.9 1.9 42 5.8 WNW 32 48 17 26 1014.2 - 0.0
29/11:00am 14.2 2.6 1.8 43 5.6 WNW 52 72 28 39 1012.8 1013.8 0.0
29/10:50am 13.7 2.4 1.4 43 5.5 WNW 50 78 27 42 1011.8 - 0.0
29/10:30am 13.3 6.2 1.3 44 5.3 WNW 28 59 15 32 1013.0 - 0.0
29/10:00am 12.9 9.0 1.0 44 5.2 N 11 28 6 15 1014.0 1015.1 0.0
29/09:30am 11.7 7.8 1.4 49 4.5 NNE 11 20 6 11 1014.3 - 0.0
29/09:00am 10.4 7.3 1.5 54 3.9 NNE 7 19 4 10 1014.4 1015.4 0.0
29/08:30am 8.4 5.2 0.6 58 3.3 N 7 15 4 8 1014.5 - 0.0
29/08:00am 8.0 3.7 0.7 60 3.0 NNW 13 24 7 13 1014.4 1015.4 0.0
29/07:30am 7.2 2.8 0.6 63 2.7 NNW 13 24 7 13 1014.6 - 0.0
29/07:00am 7.2 2.9 1.1 65 2.6 NNW 13 22 7 12 1014.4 1015.4 0.0
29/06:30am 6.3 2.4 1.0 69 2.2 NNW 11 19 6 10 1014.4 - 0.0
29/06:00am 6.8 2.6 1.7 70 2.2 NNW 13 26 7 14 1014.4 1015.4 0.0
29/05:30am 6.7 2.5 1.6 70 2.1 NNW 13 24 7 13 1014.4 - 0.0
29/05:00am 6.9 2.4 2.0 71 2.1 NNW 15 30 8 16 1014.5 1015.5 0.0
29/04:30am 6.5 2.4 2.0 73 1.9 N 13 32 7 17 1014.7 - 0.0
29/04:00am 6.6 3.6 2.1 73 1.9 N 7 15 4 8 1015.2 1016.3 0.0
29/03:30am 7.1 4.2 2.4 72 2.0 N 7 20 4 11 1015.5 - 0.0
29/03:00am 7.1 3.8 2.4 72 2.0 N 9 17 5 9 1015.9 1016.9 0.0
29/02:30am 7.9 3.4 2.4 68 2.4 NNW 15 28 8 15 1015.8 - 0.0
29/02:00am 8.3 3.8 2.3 66 2.6 NW 15 28 8 15 1015.4 1016.5 0.0
29/01:30am 7.6 3.9 2.5 70 2.2 N 11 20 6 11 1015.4 - 0.0
29/01:00am 7.5 4.5 2.2 69 2.3 N 7 13 4 7 1016.2 1017.2 0.0
29/12:30am 7.3 4.3 2.2 70 2.2 NNE 7 15 4 8 1016.7 - 0.0
29/12:00am 7.3 4.6 2.6 72 2.0 NNE 6 15 3 8 1016.8 1017.9 0.0
 
Date/Time
EST
Temp
°C
App
Temp
°C
Dew
Point
Rel
Hum
%
Delta-T
°C
Wind Press
QNH
hPa
Press
MSL
hPa
Rain
since 9 am
mm
Dir
 
Spd
km/h
Gust
km/h
Spd
kts
Gust
kts
28/11:30pm 7.3 4.6 2.6 72 2.0 N 6 13 3 7 1016.7 - 0.0
28/11:00pm 7.5 4.9 3.2 74 1.9 N 6 11 3 6 1016.9 1018.0 0.0
28/10:30pm 8.0 4.6 3.8 75 1.9 NNW 11 17 6 9 1017.0 - 0.0
28/10:00pm 8.0 4.7 4.4 78 1.6 NNW 11 19 6 10 1017.5 1018.5 0.0
28/09:30pm 7.8 5.3 4.6 80 1.5 NNW 7 15 4 8 1017.7 - 0.0
28/09:00pm 7.2 4.8 4.3 82 1.3 N 6 11 3 6 1017.8 1018.9 0.0
28/08:30pm 7.1 5.0 3.9 80 1.4 NW 4 7 2 4 1018.1 - 0.0
28/08:00pm 7.4 4.9 4.0 79 1.5 NNW 6 9 3 5 1018.2 1019.3 0.0
28/07:30pm 8.0 4.6 4.0 76 1.8 NW 11 15 6 8 1018.1 - 0.0
28/07:00pm 8.3 3.7 3.9 74 2.0 NW 17 22 9 12 1017.8 1018.9 0.0
28/06:30pm 7.8 3.9 3.5 74 1.9 NW 13 24 7 13 1018.0 - 0.0
28/06:00pm 8.5 4.7 3.8 72 2.1 NNW 13 22 7 12 1017.9 1019.0 0.0
28/05:30pm 8.7 5.3 3.9 72 2.2 NW 11 20 6 11 1018.2 - 0.0
28/05:00pm 9.2 6.1 3.8 69 2.4 NNW 9 17 5 9 1018.1 1019.2 0.0
28/04:30pm 10.2 3.9 3.9 65 2.9 WNW 26 35 14 19 1017.5 - 0.0
28/04:00pm 11.0 3.8 2.8 57 3.7 WNW 30 39 16 21 1017.5 1018.5 0.0
28/03:30pm 12.0 5.6 3.3 55 4.0 WNW 26 35 14 19 1017.4 - 0.0
28/03:00pm 11.9 6.1 2.4 52 4.3 WNW 22 30 12 16 1017.2 1018.3 0.0
28/02:30pm 12.0 6.2 2.5 52 4.3 WNW 22 33 12 18 1017.5 - 0.0
28/02:00pm 12.5 7.9 3.7 55 4.1 WNW 17 28 9 15 1017.4 1018.4 0.0
28/01:30pm 11.6 7.6 2.9 55 3.9 W 13 20 7 11 1017.9 - 0.0
28/01:00pm 11.2 6.1 4.0 61 3.3 W 20 26 11 14 1018.2 1019.3 0.0
28/12:30pm 11.5 6.3 3.3 57 3.8 WNW 20 30 11 16 1018.8 - 0.0
28/12:00pm 11.3 6.1 2.6 55 3.9 W 19 30 10 16 1019.4 1020.5 0.0
28/11:30am 11.2 8.1 1.5 51 4.3 W 7 15 4 8 1019.8 - 0.0
28/11:00am 11.5 8.8 3.5 58 3.7 NNW 7 15 4 8 1020.1 1021.2 0.0
28/10:30am 11.2 8.4 3.3 58 3.6 NW 7 11 4 6 1020.2 - 0.0
28/10:00am 10.1 6.6 1.5 55 3.7 NW 9 15 5 8 1020.2 1021.3 0.0
28/09:30am 8.8 6.0 1.9 62 3.0 NW 6 11 3 6 1020.4 - 0.0
28/09:00am 7.7 5.3 2.2 68 2.4 N 4 9 2 5 1020.7 1021.8 0.0
28/08:30am 6.4 4.2 1.3 70 2.1 NNW 2 6 1 3 1020.7 - 0.0
28/08:00am 5.3 0.6 0.7 72 1.9 WNW 15 20 8 11 1020.4 1021.6 0.0
28/07:30am 3.5 -2.0 0.4 80 1.2 W 19 24 10 13 1020.3 - 0.0
28/07:00am 2.9 -1.5 0.5 84 0.9 WNW 13 15 7 8 1020.2 1021.3 0.0
28/06:30am 2.4 -0.7 0.3 86 0.8 NW 6 11 3 6 1020.3 - 0.0
28/06:00am 3.2 -0.4 0.9 85 0.9 W 9 15 5 8 1020.2 1021.3 0.0
28/05:30am 2.0 -2.1 -0.4 84 0.9 WNW 11 15 6 8 1020.2 - 0.0
28/05:00am 3.8 -0.8 1.5 85 0.9 W 15 20 8 11 1019.9 1021.0 0.0
28/04:30am 2.7 -2.0 0.9 88 0.7 W 15 17 8 9 1020.2 - 0.0
28/04:00am 3.5 -0.7 1.9 89 0.7 WNW 13 19 7 10 1020.2 1021.3 0.0
28/03:30am 2.4 -1.1 1.5 94 0.4 NW 9 15 5 8 1020.0 - 0.0
28/03:00am 2.2 -0.9 1.5 95 0.3 NW 7 11 4 6 1019.9 1021.0 0.0
28/02:30am 1.9 0.1 1.0 94 0.4 CALM 0 2 0 1 1020.0 - 0.0
28/02:00am 1.8 -0.8 0.8 93 0.4 N 4 7 2 4 1020.2 1021.3 0.0
28/01:30am 2.6 0.1 1.7 94 0.4 N 4 7 2 4 1020.6 - 0.0
28/01:00am 2.3 0.1 1.3 93 0.4 N 2 4 1 2 1020.9 1022.0 0.0
28/12:30am 2.6 0.8 1.1 90 0.6 CALM 0 6 0 3 1021.0 - 0.0
28/12:00am 3.8 1.5 2.5 91 0.5 NNE 4 7 2 4 1021.1 1022.2 0.0
 
Date/Time
EST
Temp
°C
App
Temp
°C
Dew
Point
Rel
Hum
%
Delta-T
°C
Wind Press
QNH
hPa
Press
MSL
hPa
Rain
since 9 am
mm
Dir
 
Spd
km/h
Gust
km/h
Spd
kts
Gust
kts
27/11:30pm 4.5 1.9 3.2 91 0.6 WNW 6 7 3 4 1021.6 - 0.0

Other Formats:

Comma delimited format used in spreadsheet applications
http://www.bom.gov.au/fwo/IDN60801/IDN60801.94927.axf

JavaScript Object Notation format (JSON) in row-major order
http://www.bom.gov.au/fwo/IDN60801/IDN60801.94927.json